sensor_id;sensor_type;location;lat;lon;timestamp;pressure;altitude;pressure_sealevel;temperature
19102;BMP280;9683;49.028;12.064;2022-11-12T00:01:12;98919.84;;;9.11
19102;BMP280;9683;49.028;12.064;2022-11-12T00:03:39;98915.19;;;9.05
19102;BMP280;9683;49.028;12.064;2022-11-12T00:06:06;98917.84;;;9.05
19102;BMP280;9683;49.028;12.064;2022-11-12T00:08:32;98910.91;;;9.04
19102;BMP280;9683;49.028;12.064;2022-11-12T00:10:59;98908.06;;;9.05
19102;BMP280;9683;49.028;12.064;2022-11-12T00:13:26;98904.09;;;9.01
19102;BMP280;9683;49.028;12.064;2022-11-12T00:15:54;98910.59;;;8.99
19102;BMP280;9683;49.028;12.064;2022-11-12T00:18:20;98909.91;;;8.97
19102;BMP280;9683;49.028;12.064;2022-11-12T00:20:47;98910.94;;;8.96
19102;BMP280;9683;49.028;12.064;2022-11-12T00:23:14;98903.63;;;8.98
19102;BMP280;9683;49.028;12.064;2022-11-12T00:25:40;98903.94;;;9.03
19102;BMP280;9683;49.028;12.064;2022-11-12T00:28:08;98910.88;;;9.12
19102;BMP280;9683;49.028;12.064;2022-11-12T00:30:37;98908.34;;;9.18
19102;BMP280;9683;49.028;12.064;2022-11-12T00:33:05;98908.69;;;9.24
19102;BMP280;9683;49.028;12.064;2022-11-12T00:35:33;98900.53;;;9.25
19102;BMP280;9683;49.028;12.064;2022-11-12T00:37:59;98904.84;;;9.26
19102;BMP280;9683;49.028;12.064;2022-11-12T00:40:26;98908.00;;;9.30
19102;BMP280;9683;49.028;12.064;2022-11-12T00:42:53;98907.66;;;9.33
19102;BMP280;9683;49.028;12.064;2022-11-12T00:45:20;98905.63;;;9.35
19102;BMP280;9683;49.028;12.064;2022-11-12T00:47:47;98907.78;;;9.39
19102;BMP280;9683;49.028;12.064;2022-11-12T00:50:15;98908.59;;;9.40
19102;BMP280;9683;49.028;12.064;2022-11-12T00:52:42;98902.81;;;9.36
19102;BMP280;9683;49.028;12.064;2022-11-12T00:55:08;98910.94;;;9.35
19102;BMP280;9683;49.028;12.064;2022-11-12T00:57:35;98905.00;;;9.33
19102;BMP280;9683;49.028;12.064;2022-11-12T01:00:03;98900.84;;;9.30
19102;BMP280;9683;49.028;12.064;2022-11-12T01:02:30;98904.84;;;9.26
19102;BMP280;9683;49.028;12.064;2022-11-12T01:04:57;98903.91;;;9.11
19102;BMP280;9683;49.028;12.064;2022-11-12T01:07:26;98902.13;;;9.03
19102;BMP280;9683;49.028;12.064;2022-11-12T01:09:52;98895.97;;;9.03
19102;BMP280;9683;49.028;12.064;2022-11-12T01:12:19;98900.97;;;8.98
19102;BMP280;9683;49.028;12.064;2022-11-12T01:14:46;98893.50;;;8.93
19102;BMP280;9683;49.028;12.064;2022-11-12T01:17:12;98892.03;;;8.91
19102;BMP280;9683;49.028;12.064;2022-11-12T01:19:39;98886.41;;;8.86
19102;BMP280;9683;49.028;12.064;2022-11-12T01:22:05;98882.47;;;8.73
19102;BMP280;9683;49.028;12.064;2022-11-12T01:24:33;98877.34;;;8.56
19102;BMP280;9683;49.028;12.064;2022-11-12T01:27:00;98869.75;;;8.45
19102;BMP280;9683;49.028;12.064;2022-11-12T01:29:26;98868.25;;;8.42
19102;BMP280;9683;49.028;12.064;2022-11-12T01:31:53;98870.25;;;8.40
19102;BMP280;9683;49.028;12.064;2022-11-12T01:34:20;98866.44;;;8.35
19102;BMP280;9683;49.028;12.064;2022-11-12T01:36:46;98867.28;;;8.35
19102;BMP280;9683;49.028;12.064;2022-11-12T01:39:13;98863.78;;;8.43
19102;BMP280;9683;49.028;12.064;2022-11-12T01:41:42;98860.28;;;8.50
19102;BMP280;9683;49.028;12.064;2022-11-12T01:44:11;98863.75;;;8.59
19102;BMP280;9683;49.028;12.064;2022-11-12T01:46:55;98860.41;;;8.65
19102;BMP280;9683;49.028;12.064;2022-11-12T01:49:27;98858.41;;;8.67
19102;BMP280;9683;49.028;12.064;2022-11-12T01:51:56;98862.56;;;8.69
19102;BMP280;9683;49.028;12.064;2022-11-12T01:54:24;98867.19;;;8.75
19102;BMP280;9683;49.028;12.064;2022-11-12T01:56:54;98863.19;;;8.80
19102;BMP280;9683;49.028;12.064;2022-11-12T01:59:26;98873.63;;;8.81
19102;BMP280;9683;49.028;12.064;2022-11-12T02:01:55;98858.56;;;8.73
19102;BMP280;9683;49.028;12.064;2022-11-12T02:04:22;98858.56;;;8.73
19102;BMP280;9683;49.028;12.064;2022-11-12T02:06:50;98867.19;;;8.75
19102;BMP280;9683;49.028;12.064;2022-11-12T02:09:18;98862.69;;;8.76
19102;BMP280;9683;49.028;12.064;2022-11-12T02:11:45;98855.91;;;8.73
19102;BMP280;9683;49.028;12.064;2022-11-12T02:14:13;98845.66;;;8.70
19102;BMP280;9683;49.028;12.064;2022-11-12T02:16:40;98857.25;;;8.69
19102;BMP280;9683;49.028;12.064;2022-11-12T02:19:10;98859.41;;;8.74
19102;BMP280;9683;49.028;12.064;2022-11-12T02:21:39;98856.41;;;8.77
19102;BMP280;9683;49.028;12.064;2022-11-12T02:24:34;98851.25;;;8.75
19102;BMP280;9683;49.028;12.064;2022-11-12T02:27:03;98844.00;;;8.69
19102;BMP280;9683;49.028;12.064;2022-11-12T02:29:30;98844.66;;;8.63
19102;BMP280;9683;49.028;12.064;2022-11-12T02:31:57;98847.69;;;8.52
19102;BMP280;9683;49.028;12.064;2022-11-12T02:34:23;98848.19;;;8.48
19102;BMP280;9683;49.028;12.064;2022-11-12T02:36:51;98838.44;;;8.40
19102;BMP280;9683;49.028;12.064;2022-11-12T02:39:18;98840.88;;;8.25
19102;BMP280;9683;49.028;12.064;2022-11-12T02:41:45;98841.56;;;8.19
19102;BMP280;9683;49.028;12.064;2022-11-12T02:44:11;98844.03;;;8.21
19102;BMP280;9683;49.028;12.064;2022-11-12T02:46:38;98851.69;;;8.32
19102;BMP280;9683;49.028;12.064;2022-11-12T02:49:05;98860.63;;;8.39
19102;BMP280;9683;49.028;12.064;2022-11-12T02:51:31;98864.94;;;8.40
19102;BMP280;9683;49.028;12.064;2022-11-12T02:53:59;98862.44;;;8.39
19102;BMP280;9683;49.028;12.064;2022-11-12T02:56:26;98859.66;;;8.40
19102;BMP280;9683;49.028;12.064;2022-11-12T02:58:52;98861.94;;;8.43
19102;BMP280;9683;49.028;12.064;2022-11-12T03:01:19;98858.16;;;8.46
19102;BMP280;9683;49.028;12.064;2022-11-12T03:03:45;98861.28;;;8.49
19102;BMP280;9683;49.028;12.064;2022-11-12T03:06:12;98859.97;;;8.53
19102;BMP280;9683;49.028;12.064;2022-11-12T03:08:39;98860.28;;;8.58
19102;BMP280;9683;49.028;12.064;2022-11-12T03:11:08;98870.38;;;8.63
19102;BMP280;9683;49.028;12.064;2022-11-12T03:13:36;98860.56;;;8.63
19102;BMP280;9683;49.028;12.064;2022-11-12T03:16:03;98861.91;;;8.59
19102;BMP280;9683;49.028;12.064;2022-11-12T03:18:29;98852.97;;;8.52
19102;BMP280;9683;49.028;12.064;2022-11-12T03:20:56;98854.66;;;8.53
19102;BMP280;9683;49.028;12.064;2022-11-12T03:23:24;98849.66;;;8.58
19102;BMP280;9683;49.028;12.064;2022-11-12T03:25:51;98858.28;;;8.60
19102;BMP280;9683;49.028;12.064;2022-11-12T03:28:19;98863.22;;;8.63
19102;BMP280;9683;49.028;12.064;2022-11-12T03:30:46;98860.25;;;8.66
19102;BMP280;9683;49.028;12.064;2022-11-12T03:33:13;98855.59;;;8.68
19102;BMP280;9683;49.028;12.064;2022-11-12T03:35:41;98855.59;;;8.68
19102;BMP280;9683;49.028;12.064;2022-11-12T03:38:08;98856.78;;;8.66
19102;BMP280;9683;49.028;12.064;2022-11-12T03:40:34;98855.75;;;8.67
19102;BMP280;9683;49.028;12.064;2022-11-12T03:43:01;98856.44;;;8.69
19102;BMP280;9683;49.028;12.064;2022-11-12T03:45:29;98855.91;;;8.73
19102;BMP280;9683;49.028;12.064;2022-11-12T03:47:56;98867.38;;;8.74
19102;BMP280;9683;49.028;12.064;2022-11-12T03:50:26;98868.19;;;8.74
19102;BMP280;9683;49.028;12.064;2022-11-12T03:52:54;98863.72;;;8.75
19102;BMP280;9683;49.028;12.064;2022-11-12T03:55:23;98861.72;;;8.77
19102;BMP280;9683;49.028;12.064;2022-11-12T03:57:51;98860.25;;;8.74
19102;BMP280;9683;49.028;12.064;2022-11-12T04:00:19;98860.91;;;8.68
19102;BMP280;9683;49.028;12.064;2022-11-12T04:02:47;98858.44;;;8.59
19102;BMP280;9683;49.028;12.064;2022-11-12T04:05:14;98853.66;;;8.54
19102;BMP280;9683;49.028;12.064;2022-11-12T04:07:59;98850.66;;;8.57
19102;BMP280;9683;49.028;12.064;2022-11-12T04:10:44;98840.69;;;8.59
19102;BMP280;9683;49.028;12.064;2022-11-12T04:13:11;98848.50;;;8.61
19102;BMP280;9683;49.028;12.064;2022-11-12T04:15:58;98854.44;;;8.63
19102;BMP280;9683;49.028;12.064;2022-11-12T04:18:45;98851.00;;;8.62
19102;BMP280;9683;49.028;12.064;2022-11-12T04:21:29;98850.47;;;8.59
19102;BMP280;9683;49.028;12.064;2022-11-12T04:24:14;98844.53;;;8.57
19102;BMP280;9683;49.028;12.064;2022-11-12T04:26:54;98848.50;;;8.53
19102;BMP280;9683;49.028;12.064;2022-11-12T04:29:22;98849.53;;;8.44
19102;BMP280;9683;49.028;12.064;2022-11-12T04:32:06;98851.69;;;8.32
19102;BMP280;9683;49.028;12.064;2022-11-12T04:34:34;98849.53;;;8.19
19102;BMP280;9683;49.028;12.064;2022-11-12T04:37:01;98846.56;;;8.06
19102;BMP280;9683;49.028;12.064;2022-11-12T04:39:27;98841.59;;;8.03
19102;BMP280;9683;49.028;12.064;2022-11-12T04:41:54;98842.25;;;8.05
19102;BMP280;9683;49.028;12.064;2022-11-12T04:44:38;98852.84;;;8.05
19102;BMP280;9683;49.028;12.064;2022-11-12T04:47:38;98847.72;;;8.04
19102;BMP280;9683;49.028;12.064;2022-11-12T04:50:11;98850.19;;;8.05
19102;BMP280;9683;49.028;12.064;2022-11-12T04:52:38;98851.19;;;8.04
19102;BMP280;9683;49.028;12.064;2022-11-12T04:55:06;98845.72;;;7.98
19102;BMP280;9683;49.028;12.064;2022-11-12T04:57:33;98852.34;;;7.86
19102;BMP280;9683;49.028;12.064;2022-11-12T04:59:59;98856.13;;;7.75
19102;BMP280;9683;49.028;12.064;2022-11-12T05:02:26;98850.19;;;7.73
19102;BMP280;9683;49.028;12.064;2022-11-12T05:04:53;98845.38;;;7.76
19102;BMP280;9683;49.028;12.064;2022-11-12T05:07:21;98845.03;;;7.79
19102;BMP280;9683;49.028;12.064;2022-11-12T05:09:48;98841.91;;;7.76
19102;BMP280;9683;49.028;12.064;2022-11-12T05:12:14;98840.56;;;7.72
19102;BMP280;9683;49.028;12.064;2022-11-12T05:14:41;98833.94;;;7.68
19102;BMP280;9683;49.028;12.064;2022-11-12T05:17:08;98842.06;;;7.66
19102;BMP280;9683;49.028;12.064;2022-11-12T05:19:35;98836.25;;;7.63
19102;BMP280;9683;49.028;12.064;2022-11-12T05:22:01;98841.88;;;7.60
19102;BMP280;9683;49.028;12.064;2022-11-12T05:24:34;98838.91;;;7.63
19102;BMP280;9683;49.028;12.064;2022-11-12T05:27:01;98838.25;;;7.53
19102;BMP280;9683;49.028;12.064;2022-11-12T05:29:27;98834.41;;;7.39
19102;BMP280;9683;49.028;12.064;2022-11-12T05:31:54;98848.09;;;7.26
19102;BMP280;9683;49.028;12.064;2022-11-12T05:34:21;98842.47;;;7.21
19102;BMP280;9683;49.028;12.064;2022-11-12T05:36:48;98847.03;;;7.11
19102;BMP280;9683;49.028;12.064;2022-11-12T05:39:15;98842.56;;;7.04
19102;BMP280;9683;49.028;12.064;2022-11-12T05:41:43;98848.31;;;6.99
19102;BMP280;9683;49.028;12.064;2022-11-12T05:44:09;98837.72;;;6.91
19102;BMP280;9683;49.028;12.064;2022-11-12T05:46:36;98837.44;;;6.94
19102;BMP280;9683;49.028;12.064;2022-11-12T05:49:03;98841.41;;;6.98
19102;BMP280;9683;49.028;12.064;2022-11-12T05:51:29;98835.31;;;7.06
19102;BMP280;9683;49.028;12.064;2022-11-12T05:53:56;98837.47;;;7.10
19102;BMP280;9683;49.028;12.064;2022-11-12T05:56:23;98839.66;;;7.15
19102;BMP280;9683;49.028;12.064;2022-11-12T05:58:51;98844.47;;;7.19
19102;BMP280;9683;49.028;12.064;2022-11-12T06:01:18;98847.44;;;7.24
19102;BMP280;9683;49.028;12.064;2022-11-12T06:03:44;98842.16;;;7.32
19102;BMP280;9683;49.028;12.064;2022-11-12T06:06:11;98848.13;;;7.34
19102;BMP280;9683;49.028;12.064;2022-11-12T06:08:37;98850.44;;;7.37
19102;BMP280;9683;49.028;12.064;2022-11-12T06:11:04;98854.25;;;7.35
19102;BMP280;9683;49.028;12.064;2022-11-12T06:13:31;98856.41;;;7.31
19102;BMP280;9683;49.028;12.064;2022-11-12T06:15:59;98859.31;;;7.12
19102;BMP280;9683;49.028;12.064;2022-11-12T06:18:25;98853.63;;;6.99
19102;BMP280;9683;49.028;12.064;2022-11-12T06:20:52;98862.38;;;7.00
19102;BMP280;9683;49.028;12.064;2022-11-12T06:23:36;98856.47;;;7.06
19102;BMP280;9683;49.028;12.064;2022-11-12T06:26:03;98862.28;;;7.09
19102;BMP280;9683;49.028;12.064;2022-11-12T06:28:30;98871.88;;;7.10
19102;BMP280;9683;49.028;12.064;2022-11-12T06:30:56;98863.09;;;7.10
19102;BMP280;9683;49.028;12.064;2022-11-12T06:33:24;98871.69;;;7.12
19102;BMP280;9683;49.028;12.064;2022-11-12T06:35:57;98873.41;;;7.21
19102;BMP280;9683;49.028;12.064;2022-11-12T06:38:27;98873.91;;;7.24
19102;BMP280;9683;49.028;12.064;2022-11-12T06:40:54;98865.81;;;7.26
19102;BMP280;9683;49.028;12.064;2022-11-12T06:43:21;98866.66;;;7.34
19102;BMP280;9683;49.028;12.064;2022-11-12T06:45:47;98873.63;;;7.35
19102;BMP280;9683;49.028;12.064;2022-11-12T06:48:14;98872.94;;;7.33
19102;BMP280;9683;49.028;12.064;2022-11-12T06:50:42;98872.78;;;7.35
19102;BMP280;9683;49.028;12.064;2022-11-12T06:53:08;98869.63;;;7.31
19102;BMP280;9683;49.028;12.064;2022-11-12T06:55:35;98874.72;;;7.25
19102;BMP280;9683;49.028;12.064;2022-11-12T06:58:02;98869.91;;;7.20
19102;BMP280;9683;49.028;12.064;2022-11-12T07:00:28;98878.19;;;7.17
19102;BMP280;9683;49.028;12.064;2022-11-12T07:02:55;98866.28;;;7.21
19102;BMP280;9683;49.028;12.064;2022-11-12T07:05:21;98872.06;;;7.25
19102;BMP280;9683;49.028;12.064;2022-11-12T07:07:49;98874.94;;;7.31
19102;BMP280;9683;49.028;12.064;2022-11-12T07:10:16;98870.97;;;7.35
19102;BMP280;9683;49.028;12.064;2022-11-12T07:12:42;98881.09;;;7.40
19102;BMP280;9683;49.028;12.064;2022-11-12T07:15:09;98882.22;;;7.37
19102;BMP280;9683;49.028;12.064;2022-11-12T07:17:36;98876.09;;;7.37
19102;BMP280;9683;49.028;12.064;2022-11-12T07:20:03;98884.22;;;7.35
19102;BMP280;9683;49.028;12.064;2022-11-12T07:22:31;98881.56;;;7.35
19102;BMP280;9683;49.028;12.064;2022-11-12T07:24:59;98884.56;;;7.41
19102;BMP280;9683;49.028;12.064;2022-11-12T07:27:28;98887.53;;;7.46
19102;BMP280;9683;49.028;12.064;2022-11-12T07:29:54;98884.03;;;7.45
19102;BMP280;9683;49.028;12.064;2022-11-12T07:32:21;98889.19;;;7.47
19102;BMP280;9683;49.028;12.064;2022-11-12T07:34:48;98887.22;;;7.41
19102;BMP280;9683;49.028;12.064;2022-11-12T07:37:15;98893.28;;;7.33
19102;BMP280;9683;49.028;12.064;2022-11-12T07:39:41;98894.09;;;7.25
19102;BMP280;9683;49.028;12.064;2022-11-12T07:42:09;98896.09;;;7.23
19102;BMP280;9683;49.028;12.064;2022-11-12T07:44:36;98897.72;;;7.24
19102;BMP280;9683;49.028;12.064;2022-11-12T07:47:03;98894.09;;;7.25
19102;BMP280;9683;49.028;12.064;2022-11-12T07:49:29;98900.91;;;7.28
19102;BMP280;9683;49.028;12.064;2022-11-12T07:51:56;98899.06;;;7.28
19102;BMP280;9683;49.028;12.064;2022-11-12T07:54:22;98900.38;;;7.32
19102;BMP280;9683;49.028;12.064;2022-11-12T07:56:49;98905.38;;;7.35
19102;BMP280;9683;49.028;12.064;2022-11-12T07:59:17;98895.94;;;7.41
19102;BMP280;9683;49.028;12.064;2022-11-12T08:01:43;98897.13;;;7.47
19102;BMP280;9683;49.028;12.064;2022-11-12T08:04:10;98897.00;;;7.48
19102;BMP280;9683;49.028;12.064;2022-11-12T08:06:38;98896.50;;;7.45
19102;BMP280;9683;49.028;12.064;2022-11-12T08:09:06;98889.03;;;7.48
19102;BMP280;9683;49.028;12.064;2022-11-12T08:11:34;98892.84;;;7.54
19102;BMP280;9683;49.028;12.064;2022-11-12T08:14:02;98890.38;;;7.52
19102;BMP280;9683;49.028;12.064;2022-11-12T08:16:30;98895.31;;;7.47
19102;BMP280;9683;49.028;12.064;2022-11-12T08:18:57;98887.50;;;7.37
19102;BMP280;9683;49.028;12.064;2022-11-12T08:21:24;98887.50;;;7.37
19102;BMP280;9683;49.028;12.064;2022-11-12T08:23:51;98889.34;;;7.45
19102;BMP280;9683;49.028;12.064;2022-11-12T08:26:19;98892.69;;;7.55
19102;BMP280;9683;49.028;12.064;2022-11-12T08:28:46;98892.22;;;7.68
19102;BMP280;9683;49.028;12.064;2022-11-12T08:31:14;98892.44;;;7.82
19102;BMP280;9683;49.028;12.064;2022-11-12T08:33:43;98889.59;;;7.92
19102;BMP280;9683;49.028;12.064;2022-11-12T08:36:11;98888.47;;;8.03
19102;BMP280;9683;49.028;12.064;2022-11-12T08:38:39;98898.25;;;8.10
19102;BMP280;9683;49.028;12.064;2022-11-12T08:41:07;98900.88;;;8.18
19102;BMP280;9683;49.028;12.064;2022-11-12T08:43:34;98905.34;;;8.26
19102;BMP280;9683;49.028;12.064;2022-11-12T08:46:02;98910.69;;;8.34
19102;BMP280;9683;49.028;12.064;2022-11-12T08:48:31;98914.66;;;8.38
19102;BMP280;9683;49.028;12.064;2022-11-12T08:51:02;98913.69;;;8.31
19102;BMP280;9683;49.028;12.064;2022-11-12T08:53:30;98915.97;;;8.18
19102;BMP280;9683;49.028;12.064;2022-11-12T08:55:57;98920.09;;;8.12
19102;BMP280;9683;49.028;12.064;2022-11-12T08:58:24;98916.47;;;8.13
19102;BMP280;9683;49.028;12.064;2022-11-12T09:00:52;98913.16;;;8.19
19102;BMP280;9683;49.028;12.064;2022-11-12T09:03:20;98916.94;;;8.25
19102;BMP280;9683;49.028;12.064;2022-11-12T09:05:47;98919.44;;;8.26
19102;BMP280;9683;49.028;12.064;2022-11-12T09:08:17;98918.97;;;8.31
19102;BMP280;9683;49.028;12.064;2022-11-12T09:10:45;98911.38;;;8.36
19102;BMP280;9683;49.028;12.064;2022-11-12T09:13:12;98918.97;;;8.47
19102;BMP280;9683;49.028;12.064;2022-11-12T09:15:39;98916.16;;;8.57
19102;BMP280;9683;49.028;12.064;2022-11-12T09:18:10;98911.34;;;8.60
19102;BMP280;9683;49.028;12.064;2022-11-12T09:20:37;98915.47;;;8.55
19102;BMP280;9683;49.028;12.064;2022-11-12T09:23:05;98919.47;;;8.51
19102;BMP280;9683;49.028;12.064;2022-11-12T09:25:33;98919.78;;;8.56
19102;BMP280;9683;49.028;12.064;2022-11-12T09:28:05;98914.81;;;8.61
19102;BMP280;9683;49.028;12.064;2022-11-12T09:30:32;98919.13;;;8.70
19102;BMP280;9683;49.028;12.064;2022-11-12T09:32:58;98918.13;;;8.79
19102;BMP280;9683;49.028;12.064;2022-11-12T09:35:25;98926.38;;;8.84
19102;BMP280;9683;49.028;12.064;2022-11-12T09:37:52;98925.56;;;8.84
19102;BMP280;9683;49.028;12.064;2022-11-12T09:40:19;98921.56;;;8.80
19102;BMP280;9683;49.028;12.064;2022-11-12T09:42:50;98922.09;;;8.75
19102;BMP280;9683;49.028;12.064;2022-11-12T09:45:21;98907.00;;;8.67
19102;BMP280;9683;49.028;12.064;2022-11-12T09:47:51;98916.13;;;8.73
19102;BMP280;9683;49.028;12.064;2022-11-12T09:52:51;98915.13;;;8.82
19102;BMP280;9683;49.028;12.064;2022-11-12T09:55:27;98918.56;;;8.91
19102;BMP280;9683;49.028;12.064;2022-11-12T09:57:56;98909.44;;;8.93
19102;BMP280;9683;49.028;12.064;2022-11-12T10:00:23;98910.09;;;8.95
19102;BMP280;9683;49.028;12.064;2022-11-12T10:02:53;98906.28;;;8.90
19102;BMP280;9683;49.028;12.064;2022-11-12T10:05:25;98912.28;;;8.92
19102;BMP280;9683;49.028;12.064;2022-11-12T10:08:02;98908.94;;;8.98
19102;BMP280;9683;49.028;12.064;2022-11-12T10:10:40;98910.56;;;9.07
19102;BMP280;9683;49.028;12.064;2022-11-12T10:13:24;98901.41;;;9.09
19102;BMP280;9683;49.028;12.064;2022-11-12T10:16:07;98893.78;;;9.14
19102;BMP280;9683;49.028;12.064;2022-11-12T10:19:15;98894.09;;;9.19
19102;BMP280;9683;49.028;12.064;2022-11-12T10:21:51;98895.75;;;9.20
19102;BMP280;9683;49.028;12.064;2022-11-12T10:24:21;98893.59;;;9.16
19102;BMP280;9683;49.028;12.064;2022-11-12T10:26:49;98891.44;;;9.19
19102;BMP280;9683;49.028;12.064;2022-11-12T10:29:27;98884.63;;;9.25
19102;BMP280;9683;49.028;12.064;2022-11-12T10:31:54;98878.13;;;9.28
19102;BMP280;9683;49.028;12.064;2022-11-12T10:34:22;98875.78;;;9.33
19102;BMP280;9683;49.028;12.064;2022-11-12T10:36:52;98867.63;;;9.34
19102;BMP280;9683;49.028;12.064;2022-11-12T10:39:31;98871.41;;;9.40
19102;BMP280;9683;49.028;12.064;2022-11-12T10:42:03;98861.78;;;9.39
19102;BMP280;9683;49.028;12.064;2022-11-12T10:44:31;98857.44;;;9.46
19102;BMP280;9683;49.028;12.064;2022-11-12T10:47:17;98850.25;;;9.54
19102;BMP280;9683;49.028;12.064;2022-11-12T10:50:00;98858.34;;;9.61
19102;BMP280;9683;49.028;12.064;2022-11-12T10:52:27;98850.19;;;9.62
19102;BMP280;9683;49.028;12.064;2022-11-12T10:55:03;98855.97;;;9.66
19102;BMP280;9683;49.028;12.064;2022-11-12T10:57:30;98857.81;;;9.65
19102;BMP280;9683;49.028;12.064;2022-11-12T11:00:07;98848.53;;;9.61
19102;BMP280;9683;49.028;12.064;2022-11-12T11:02:34;98848.38;;;9.63
19102;BMP280;9683;49.028;12.064;2022-11-12T11:05:29;98853.09;;;9.76
19102;BMP280;9683;49.028;12.064;2022-11-12T11:07:56;98846.53;;;9.86
19102;BMP280;9683;49.028;12.064;2022-11-12T11:10:26;98839.78;;;9.98
19102;BMP280;9683;49.028;12.064;2022-11-12T11:13:19;98844.88;;;10.08
19102;BMP280;9683;49.028;12.064;2022-11-12T11:16:02;98839.63;;;10.14
19102;BMP280;9683;49.028;12.064;2022-11-12T11:18:30;98844.47;;;10.19
19102;BMP280;9683;49.028;12.064;2022-11-12T11:21:04;98833.28;;;10.24
19102;BMP280;9683;49.028;12.064;2022-11-12T11:23:35;98836.41;;;10.27
19102;BMP280;9683;49.028;12.064;2022-11-12T11:26:13;98829.09;;;10.29
19102;BMP280;9683;49.028;12.064;2022-11-12T11:28:45;98830.75;;;10.30
19102;BMP280;9683;49.028;12.064;2022-11-12T11:31:24;98831.19;;;10.34
19102;BMP280;9683;49.028;12.064;2022-11-12T11:34:08;98826.16;;;10.39
19102;BMP280;9683;49.028;12.064;2022-11-12T11:36:42;98821.59;;;10.47
19102;BMP280;9683;49.028;12.064;2022-11-12T11:39:17;98820.66;;;10.55
19102;BMP280;9683;49.028;12.064;2022-11-12T11:41:53;98811.75;;;10.63
19102;BMP280;9683;49.028;12.064;2022-11-12T11:44:32;98809.38;;;10.68
19102;BMP280;9683;49.028;12.064;2022-11-12T11:47:14;98802.47;;;10.73
19102;BMP280;9683;49.028;12.064;2022-11-12T11:49:57;98808.91;;;10.79
19102;BMP280;9683;49.028;12.064;2022-11-12T11:52:43;98807.97;;;10.86
19102;BMP280;9683;49.028;12.064;2022-11-12T11:55:20;98807.25;;;10.92
19102;BMP280;9683;49.028;12.064;2022-11-12T11:57:55;98805.03;;;10.96
19102;BMP280;9683;49.028;12.064;2022-11-12T12:00:24;98810.19;;;10.97
19102;BMP280;9683;49.028;12.064;2022-11-12T12:03:27;98810.47;;;11.02
19102;BMP280;9683;49.028;12.064;2022-11-12T12:06:07;98814.75;;;11.03
19102;BMP280;9683;49.028;12.064;2022-11-12T12:08:50;98807.41;;;11.06
19102;BMP280;9683;49.028;12.064;2022-11-12T12:11:23;98815.88;;;11.09
19102;BMP280;9683;49.028;12.064;2022-11-12T12:14:08;98811.81;;;11.13
19102;BMP280;9683;49.028;12.064;2022-11-12T12:16:47;98806.03;;;11.10
19102;BMP280;9683;49.028;12.064;2022-11-12T12:19:31;98807.03;;;11.09
19102;BMP280;9683;49.028;12.064;2022-11-12T12:22:03;98810.38;;;11.11
19102;BMP280;9683;49.028;12.064;2022-11-12T12:24:34;98814.03;;;11.10
19102;BMP280;9683;49.028;12.064;2022-11-12T12:27:09;98813.81;;;11.11
19102;BMP280;9683;49.028;12.064;2022-11-12T12:29:39;98810.09;;;11.06
19102;BMP280;9683;49.028;12.064;2022-11-12T12:32:12;98807.09;;;10.94
19102;BMP280;9683;49.028;12.064;2022-11-12T12:34:44;98807.63;;;10.89
19102;BMP280;9683;49.028;12.064;2022-11-12T12:37:20;98801.19;;;10.84
19102;BMP280;9683;49.028;12.064;2022-11-12T12:39:52;98806.53;;;10.84
19102;BMP280;9683;49.028;12.064;2022-11-12T12:42:23;98809.91;;;10.78
19102;BMP280;9683;49.028;12.064;2022-11-12T12:44:55;98804.78;;;10.76
19102;BMP280;9683;49.028;12.064;2022-11-12T12:47:27;98808.91;;;10.79
19102;BMP280;9683;49.028;12.064;2022-11-12T12:49:57;98808.53;;;10.82
19102;BMP280;9683;49.028;12.064;2022-11-12T12:52:24;98807.72;;;10.81
19102;BMP280;9683;49.028;12.064;2022-11-12T12:54:55;98812.56;;;10.78
19102;BMP280;9683;49.028;12.064;2022-11-12T12:57:28;98805.50;;;10.70
19102;BMP280;9683;49.028;12.064;2022-11-12T13:00:25;98795.63;;;10.64
19102;BMP280;9683;49.028;12.064;2022-11-12T13:02:53;98793.31;;;10.61
19102;BMP280;9683;49.028;12.064;2022-11-12T13:05:26;98794.13;;;10.62
19102;BMP280;9683;49.028;12.064;2022-11-12T13:07:56;98794.06;;;10.55
19102;BMP280;9683;49.028;12.064;2022-11-12T13:10:48;98795.06;;;10.54
19102;BMP280;9683;49.028;12.064;2022-11-12T13:13:38;98804.59;;;10.48
19102;BMP280;9683;49.028;12.064;2022-11-12T13:16:06;98797.63;;;10.47
19102;BMP280;9683;49.028;12.064;2022-11-12T13:18:55;98793.50;;;10.45
19102;BMP280;9683;49.028;12.064;2022-11-12T13:21:24;98792.19;;;10.41
19102;BMP280;9683;49.028;12.064;2022-11-12T13:23:51;98784.44;;;10.39
19102;BMP280;9683;49.028;12.064;2022-11-12T13:26:47;98788.72;;;10.40
19102;BMP280;9683;49.028;12.064;2022-11-12T13:29:21;98783.59;;;10.39
19102;BMP280;9683;49.028;12.064;2022-11-12T13:31:49;98784.44;;;10.39
19102;BMP280;9683;49.028;12.064;2022-11-12T13:34:35;98781.75;;;10.39
19102;BMP280;9683;49.028;12.064;2022-11-12T13:37:04;98773.56;;;10.41
19102;BMP280;9683;49.028;12.064;2022-11-12T13:39:31;98775.41;;;10.40
19102;BMP280;9683;49.028;12.064;2022-11-12T13:42:01;98771.56;;;10.43
19102;BMP280;9683;49.028;12.064;2022-11-12T13:44:52;98767.88;;;10.44
19102;BMP280;9683;49.028;12.064;2022-11-12T13:47:20;98764.22;;;10.45
19102;BMP280;9683;49.028;12.064;2022-11-12T13:49:48;98758.91;;;10.45
19102;BMP280;9683;49.028;12.064;2022-11-12T13:52:17;98749.91;;;10.46
19102;BMP280;9683;49.028;12.064;2022-11-12T13:54:44;98753.41;;;10.46
19102;BMP280;9683;49.028;12.064;2022-11-12T13:57:12;98744.22;;;10.49
19102;BMP280;9683;49.028;12.064;2022-11-12T13:59:39;98750.53;;;10.48
19102;BMP280;9683;49.028;12.064;2022-11-12T14:02:18;98751.19;;;10.50
19102;BMP280;9683;49.028;12.064;2022-11-12T14:04:45;98745.03;;;10.49
19102;BMP280;9683;49.028;12.064;2022-11-12T14:07:30;98747.53;;;10.51
19102;BMP280;9683;49.028;12.064;2022-11-12T14:10:04;98748.53;;;10.50
19102;BMP280;9683;49.028;12.064;2022-11-12T14:12:53;98736.88;;;10.51
19102;BMP280;9683;49.028;12.064;2022-11-12T14:15:30;98742.00;;;10.52
19102;BMP280;9683;49.028;12.064;2022-11-12T14:18:04;98735.41;;;10.48
19102;BMP280;9683;49.028;12.064;2022-11-12T14:20:33;98726.97;;;10.45
19102;BMP280;9683;49.028;12.064;2022-11-12T14:23:10;98734.94;;;10.45
19102;BMP280;9683;49.028;12.064;2022-11-12T14:25:45;98730.28;;;10.47
19102;BMP280;9683;49.028;12.064;2022-11-12T14:28:30;98731.09;;;10.47
19102;BMP280;9683;49.028;12.064;2022-11-12T14:30:59;98723.28;;;10.46
19102;BMP280;9683;49.028;12.064;2022-11-12T14:33:27;98726.13;;;10.44
19102;BMP280;9683;49.028;12.064;2022-11-12T14:35:59;98724.13;;;10.46
19102;BMP280;9683;49.028;12.064;2022-11-12T14:38:30;98721.91;;;10.50
19102;BMP280;9683;49.028;12.064;2022-11-12T14:41:00;98719.44;;;10.48